« Back
NWS Peachtree City, Ga » Text Product » CSG Terminal Aerodrome Forecast


Printer-friendly Version
Current Version              Previous Versions:   1  2  3  4  5  6  7  8  9  

Terminal Aerodrome Forecast

088
FTUS42 KFFC 262333
TAFCSG
TAF
KCSG 262333Z 2700/2724 15008KT P6SM SCT060
     FM270100 10004KT P6SM SCT250
     FM271500 09007KT P6SM FEW045
     FM271900 11012KT P6SM FEW060=

USA.gov is the U.S. government's official web portal to all federal, state and local government web resources and services.